createdAt,value
2022-09-20T00:01:33.657Z,80.10
2022-09-20T00:04:05.337Z,80.20
2022-09-20T00:06:33.808Z,80.30
2022-09-20T00:09:02.750Z,80.50
2022-09-20T00:11:33.181Z,80.70
2022-09-20T00:14:02.058Z,80.90
2022-09-20T00:16:39.233Z,81.00
2022-09-20T00:19:07.913Z,81.20
2022-09-20T00:21:37.779Z,81.30
2022-09-20T00:24:06.171Z,81.50
2022-09-20T00:26:33.861Z,81.50
2022-09-20T00:29:01.806Z,81.50
2022-09-20T00:31:29.310Z,81.10
2022-09-20T00:34:16.858Z,81.20
2022-09-20T00:36:45.297Z,81.00
2022-09-20T00:39:14.508Z,80.60
2022-09-20T00:41:42.641Z,80.50
2022-09-20T00:44:47.793Z,80.40
2022-09-20T00:47:36.545Z,80.30
2022-09-20T00:50:14.064Z,79.80
2022-09-20T00:52:45.495Z,79.10
2022-09-20T00:55:16.308Z,78.30
2022-09-20T00:57:44.542Z,77.50
2022-09-20T01:00:13.022Z,77.10
2022-09-20T01:02:46.880Z,76.80
2022-09-20T01:05:15.602Z,76.40
2022-09-20T01:07:44.566Z,76.40
2022-09-20T01:10:11.826Z,76.20
2022-09-20T01:12:40.707Z,75.60
2022-09-20T01:15:09.619Z,75.40
2022-09-20T01:17:41.581Z,75.40
2022-09-20T01:20:18.178Z,75.60
2022-09-20T01:23:00.341Z,75.80
2022-09-20T01:25:58.496Z,75.90
2022-09-20T01:28:27.443Z,75.90
2022-09-20T01:31:09.761Z,76.10
2022-09-20T01:34:00.294Z,76.40
2022-09-20T01:36:43.627Z,76.80
2022-09-20T01:39:43.220Z,76.90
2022-09-20T01:42:12.424Z,77.10
2022-09-20T01:44:42.345Z,77.00
2022-09-20T01:47:21.438Z,76.90
2022-09-20T01:50:07.458Z,76.90
2022-09-20T01:52:49.517Z,77.10
2022-09-20T01:55:16.613Z,77.00
2022-09-20T01:58:17.654Z,76.80
2022-09-20T02:01:21.845Z,76.70
2022-09-20T02:04:03.978Z,76.80
2022-09-20T02:06:53.966Z,76.90
2022-09-20T02:09:31.157Z,77.20
2022-09-20T02:12:21.745Z,77.00
2022-09-20T02:14:51.940Z,76.20
2022-09-20T02:17:34.687Z,76.20
2022-09-20T02:20:11.380Z,76.30
2022-09-20T02:22:43.674Z,76.00
2022-09-20T02:25:35.157Z,75.70
2022-09-20T02:28:32.781Z,75.80
2022-09-20T02:31:21.042Z,75.70
2022-09-20T02:34:27.711Z,75.60
2022-09-20T02:37:32.323Z,75.90
2022-09-20T02:40:24.890Z,76.20
2022-09-20T02:43:16.514Z,76.30
2022-09-20T02:46:00.031Z,76.40
2022-09-20T02:48:53.846Z,75.60
2022-09-20T02:51:31.140Z,75.60
2022-09-20T02:54:16.490Z,75.40
2022-09-20T02:57:01.476Z,75.10
2022-09-20T02:59:47.337Z,75.20
2022-09-20T03:02:36.202Z,75.00
2022-09-20T03:05:18.806Z,75.10
2022-09-20T03:08:04.329Z,75.30
2022-09-20T03:10:49.237Z,75.60
2022-09-20T03:13:16.419Z,75.80
2022-09-20T03:16:26.379Z,75.80
2022-09-20T03:18:56.562Z,75.90
2022-09-20T03:21:42.910Z,75.80
2022-09-20T03:24:34.596Z,75.60
2022-09-20T03:27:52.792Z,75.50
2022-09-20T03:30:46.662Z,75.50
2022-09-20T03:33:40.260Z,75.60
2022-09-20T03:36:34.584Z,75.40
2022-09-20T03:39:20.063Z,75.20
2022-09-20T03:42:18.947Z,75.20
2022-09-20T03:45:23.916Z,75.40
2022-09-20T03:47:57.610Z,75.60
2022-09-20T03:50:42.785Z,75.60
2022-09-20T03:53:40.828Z,75.80
2022-09-20T03:56:20.012Z,76.10
2022-09-20T03:59:02.214Z,76.20
2022-09-20T04:01:48.451Z,76.60
2022-09-20T04:04:53.990Z,76.40
2022-09-20T04:07:24.272Z,76.30
2022-09-20T04:10:20.903Z,76.10
2022-09-20T04:13:25.481Z,76.40
2022-09-20T04:16:23.747Z,76.40
2022-09-20T04:19:32.757Z,76.50
2022-09-20T04:22:02.396Z,76.60
2022-09-20T04:24:44.762Z,76.80
2022-09-20T04:27:21.254Z,76.90
2022-09-20T04:30:07.034Z,77.10
2022-09-20T04:33:05.996Z,77.20
2022-09-20T04:36:08.138Z,77.40
2022-09-20T04:38:35.914Z,77.40
2022-09-20T04:41:28.468Z,77.80
2022-09-20T04:44:14.475Z,77.70
2022-09-20T04:47:00.079Z,77.70
2022-09-20T04:49:50.463Z,77.70
2022-09-20T04:52:43.702Z,77.70
2022-09-20T04:55:24.150Z,77.90
2022-09-20T04:57:54.725Z,77.90
2022-09-20T05:00:35.304Z,78.00
2022-09-20T05:03:34.565Z,78.00
2022-09-20T05:06:07.618Z,78.20
2022-09-20T05:08:58.808Z,78.30
2022-09-20T05:11:47.467Z,78.30
2022-09-20T05:14:33.308Z,78.50
2022-09-20T05:17:21.900Z,78.80
2022-09-20T05:20:26.341Z,79.10
2022-09-20T05:23:08.293Z,79.30
2022-09-20T05:25:56.533Z,79.50
2022-09-20T05:28:51.420Z,79.40
2022-09-20T05:31:46.403Z,78.90
2022-09-20T05:34:43.593Z,78.40
2022-09-20T05:37:28.917Z,78.20
2022-09-20T05:39:59.061Z,78.00
2022-09-20T05:43:00.659Z,78.00
2022-09-20T05:45:48.864Z,77.80
2022-09-20T05:48:38.730Z,77.00
2022-09-20T05:51:24.482Z,75.90
2022-09-20T05:53:56.078Z,74.80
2022-09-20T05:57:02.492Z,74.70
2022-09-20T05:59:47.544Z,74.50
2022-09-20T06:02:17.733Z,74.10
2022-09-20T06:05:22.058Z,72.80
2022-09-20T06:08:19.102Z,71.50
2022-09-20T06:11:07.421Z,70.80
2022-09-20T06:13:34.605Z,69.80
2022-09-20T06:16:04.615Z,69.30
2022-09-20T06:19:04.550Z,69.80
2022-09-20T06:21:42.783Z,68.70
2022-09-20T06:24:31.568Z,68.10
2022-09-20T06:27:04.217Z,67.60
2022-09-20T06:29:35.639Z,67.00
2022-09-20T06:32:05.099Z,66.00
2022-09-20T06:34:33.016Z,66.40
2022-09-20T06:37:31.189Z,66.70
2022-09-20T06:40:22.195Z,66.80
2022-09-20T06:42:49.507Z,66.30
2022-09-20T06:45:16.743Z,66.60
2022-09-20T06:47:43.996Z,66.50
2022-09-20T06:50:20.567Z,66.30
2022-09-20T06:52:47.903Z,65.90
2022-09-20T06:55:29.304Z,66.20
2022-09-20T06:57:59.114Z,66.40
2022-09-20T07:00:26.281Z,66.10
2022-09-20T07:02:54.216Z,65.90
2022-09-20T07:05:22.128Z,65.70
2022-09-20T07:07:49.463Z,65.40
2022-09-20T07:10:17.114Z,65.90
2022-09-20T07:12:44.359Z,65.20
2022-09-20T07:15:12.275Z,64.90
2022-09-20T07:17:39.563Z,64.60
2022-09-20T07:20:07.109Z,65.00
2022-09-20T07:22:34.327Z,65.60
2022-09-20T07:25:02.567Z,66.30
2022-09-20T07:27:29.923Z,66.80
2022-09-20T07:29:57.132Z,67.00
2022-09-20T07:32:24.348Z,66.80
2022-09-20T07:34:51.581Z,65.60
2022-09-20T07:37:19.480Z,64.80
2022-09-20T07:39:46.794Z,63.40
2022-09-20T07:42:14.542Z,63.90
2022-09-20T07:44:43.402Z,64.50
2022-09-20T07:47:11.345Z,63.70
2022-09-20T07:49:38.811Z,62.70
2022-09-20T07:52:05.968Z,62.70
2022-09-20T07:54:33.172Z,61.70
2022-09-20T07:57:00.285Z,61.20
2022-09-20T07:59:27.669Z,61.10
2022-09-20T08:01:55.183Z,62.20
2022-09-20T08:04:22.317Z,61.70
2022-09-20T08:06:49.559Z,60.70
2022-09-20T08:09:16.875Z,60.30
2022-09-20T08:11:44.184Z,59.70
2022-09-20T08:14:16.011Z,60.20
2022-09-20T08:16:45.713Z,59.70
2022-09-20T08:19:27.800Z,58.30
2022-09-20T08:21:55.452Z,58.60
2022-09-20T08:24:22.609Z,58.00
2022-09-20T08:26:49.720Z,56.30
2022-09-20T08:29:17.406Z,55.90
2022-09-20T08:31:44.653Z,56.00
2022-09-20T08:34:14.095Z,56.30
2022-09-20T08:36:44.321Z,56.50
2022-09-20T08:42:11.232Z,57.40
2022-09-20T08:45:00.490Z,58.00
2022-09-20T08:47:57.784Z,57.80
2022-09-20T08:50:26.975Z,59.10
2022-09-20T08:53:00.774Z,59.90
2022-09-20T08:55:36.356Z,59.50
2022-09-20T08:58:08.443Z,59.60
2022-09-20T09:00:37.801Z,58.50
2022-09-20T09:03:12.705Z,58.80
2022-09-20T09:05:52.002Z,57.80
2022-09-20T09:08:21.384Z,58.50
2022-09-20T09:10:54.947Z,58.80
2022-09-20T09:13:51.421Z,58.80
2022-09-20T09:16:27.315Z,58.40
2022-09-20T09:18:57.898Z,57.70
2022-09-20T09:21:30.564Z,57.60
2022-09-20T09:24:09.571Z,57.40
2022-09-20T09:26:43.464Z,57.30
2022-09-20T09:29:17.926Z,57.20
2022-09-20T09:31:47.320Z,57.00
2022-09-20T09:34:35.421Z,56.60
2022-09-20T09:37:02.875Z,57.50
2022-09-20T09:39:32.448Z,57.20
2022-09-20T09:42:01.352Z,57.50
2022-09-20T09:44:33.312Z,57.20
2022-09-20T09:47:01.057Z,56.80
2022-09-20T09:49:36.586Z,56.60
2022-09-20T09:52:24.738Z,56.80
2022-09-20T09:55:03.613Z,57.00
2022-09-20T09:57:45.705Z,57.10
2022-09-20T10:00:22.663Z,57.10
2022-09-20T10:03:17.372Z,57.00
2022-09-20T10:05:53.790Z,56.50
2022-09-20T10:08:29.389Z,56.20
2022-09-20T10:11:12.295Z,56.40
2022-09-20T10:13:50.478Z,56.40
2022-09-20T10:16:55.559Z,56.50
2022-09-20T10:19:25.638Z,56.90
2022-09-20T10:21:58.231Z,56.80
2022-09-20T10:24:53.415Z,56.90
2022-09-20T10:27:53.219Z,56.90
2022-09-20T10:30:25.914Z,56.70
2022-09-20T10:33:10.256Z,56.10
2022-09-20T10:36:01.198Z,55.10
2022-09-20T10:38:49.683Z,55.00
2022-09-20T10:41:48.722Z,54.70
2022-09-20T10:44:19.011Z,54.90
2022-09-20T10:47:21.641Z,54.30
2022-09-20T10:50:10.181Z,54.10
2022-09-20T10:53:12.505Z,55.10
2022-09-20T10:56:08.186Z,54.70
2022-09-20T10:58:54.698Z,53.50
2022-09-20T11:01:56.577Z,52.50
2022-09-20T11:04:32.771Z,51.50
2022-09-20T11:07:29.544Z,50.10
2022-09-20T11:10:08.387Z,49.90
2022-09-20T11:12:48.259Z,48.50
2022-09-20T11:15:26.814Z,47.10
2022-09-20T11:18:03.120Z,46.30
2022-09-20T11:20:37.603Z,47.70
2022-09-20T11:23:14.560Z,48.10
2022-09-20T11:26:13.066Z,47.60
2022-09-20T11:28:54.332Z,47.10
2022-09-20T11:31:43.020Z,46.80
2022-09-20T11:34:40.271Z,46.80
2022-09-20T11:37:09.366Z,45.50
2022-09-20T11:39:56.464Z,44.90
2022-09-20T11:42:31.493Z,43.90
2022-09-20T11:44:58.848Z,44.20
2022-09-20T11:47:53.323Z,44.30
2022-09-20T11:50:45.369Z,44.30
2022-09-20T11:53:36.925Z,46.00
2022-09-20T11:56:12.792Z,43.20
2022-09-20T11:58:52.562Z,43.10
2022-09-20T12:01:28.745Z,44.50
2022-09-20T12:04:34.770Z,45.30
2022-09-20T12:07:18.114Z,43.70
2022-09-20T12:10:25.302Z,43.00
2022-09-20T12:13:00.035Z,42.10
2022-09-20T12:15:40.069Z,42.70
2022-09-20T12:18:26.175Z,42.20
2022-09-20T12:20:56.115Z,42.10
2022-09-20T12:23:41.387Z,41.90
2022-09-20T12:26:22.703Z,40.80
2022-09-20T12:28:51.336Z,41.10
2022-09-20T12:31:26.243Z,42.70
2022-09-20T12:34:15.570Z,42.60
2022-09-20T12:36:43.877Z,42.90
2022-09-20T12:39:16.373Z,42.70
2022-09-20T12:41:52.850Z,41.60
2022-09-20T12:44:35.844Z,40.60
2022-09-20T12:47:12.143Z,40.10
2022-09-20T12:50:06.658Z,40.60
2022-09-20T12:52:58.149Z,40.20
2022-09-20T12:55:43.908Z,39.30
2022-09-20T12:58:14.342Z,40.00
2022-09-20T13:00:57.915Z,39.80
2022-09-20T13:03:48.495Z,39.70
2022-09-20T13:06:16.683Z,39.50
2022-09-20T13:09:01.544Z,39.90
2022-09-20T13:11:41.792Z,40.00
2022-09-20T13:14:44.701Z,41.00
2022-09-20T13:17:30.010Z,41.00
2022-09-20T13:19:58.143Z,40.40
2022-09-20T13:22:45.457Z,40.00
2022-09-20T13:25:17.619Z,40.40
2022-09-20T13:27:54.295Z,40.30
2022-09-20T13:30:24.439Z,41.90
2022-09-20T13:32:52.839Z,42.70
2022-09-20T13:35:32.565Z,42.40
2022-09-20T13:38:06.966Z,41.20
2022-09-20T13:40:38.530Z,41.60
2022-09-20T13:43:24.955Z,43.60
2022-09-20T13:46:09.495Z,45.40
2022-09-20T13:48:36.944Z,48.00
2022-09-20T13:51:04.569Z,50.20
2022-09-20T13:53:46.854Z,51.00
2022-09-20T13:56:20.309Z,51.40
2022-09-20T13:58:49.193Z,52.10
2022-09-20T14:01:31.586Z,53.50
2022-09-20T14:04:14.818Z,53.50
2022-09-20T14:06:42.648Z,53.80
2022-09-20T14:09:23.842Z,54.20
2022-09-20T14:11:51.347Z,54.40
2022-09-20T14:14:22.166Z,55.00
2022-09-20T14:16:51.802Z,54.70
2022-09-20T14:19:21.591Z,55.00
2022-09-20T14:21:49.621Z,55.20
2022-09-20T14:24:17.662Z,56.70
2022-09-20T14:27:18.205Z,57.10
2022-09-20T14:29:56.424Z,56.70
2022-09-20T14:32:37.830Z,56.90
2022-09-20T14:35:23.881Z,57.10
2022-09-20T14:37:55.086Z,56.90
2022-09-20T14:40:31.611Z,57.10
2022-09-20T14:43:01.360Z,57.20
2022-09-20T14:45:34.083Z,57.70
2022-09-20T14:48:10.776Z,57.70
2022-09-20T14:50:43.768Z,57.70
2022-09-20T14:53:13.627Z,57.20
2022-09-20T14:56:01.886Z,57.70
2022-09-20T14:58:29.298Z,58.10
2022-09-20T15:01:01.363Z,58.50
2022-09-20T15:03:31.148Z,58.70
2022-09-20T15:05:58.716Z,58.30
2022-09-20T15:08:27.133Z,58.50
2022-09-20T15:10:54.935Z,58.20
2022-09-20T15:13:22.146Z,58.30
2022-09-20T15:15:52.853Z,58.60
2022-09-20T15:18:30.404Z,58.40
2022-09-20T15:20:57.611Z,58.00
2022-09-20T15:23:24.683Z,58.40
2022-09-20T15:25:53.640Z,58.60
2022-09-20T15:28:21.378Z,58.80
2022-09-20T15:30:50.635Z,58.70
2022-09-20T15:33:19.707Z,58.70
2022-09-20T15:35:47.814Z,58.50
2022-09-20T15:38:18.022Z,58.50
2022-09-20T15:40:48.110Z,58.60
2022-09-20T15:43:24.025Z,58.00
2022-09-20T15:46:01.269Z,57.80
2022-09-20T15:48:30.787Z,57.90
2022-09-20T15:51:11.455Z,58.00
2022-09-20T15:53:40.374Z,58.60
2022-09-20T15:56:35.451Z,59.00
2022-09-20T15:59:05.310Z,59.00
2022-09-20T16:01:40.823Z,58.70
2022-09-20T16:04:13.032Z,58.60
2022-09-20T16:06:42.401Z,58.60
2022-09-20T16:09:09.716Z,58.60
2022-09-20T16:11:37.568Z,58.90
2022-09-20T16:14:05.255Z,59.00
2022-09-20T16:16:38.934Z,59.30
2022-09-20T16:19:19.814Z,59.60
2022-09-20T16:21:53.596Z,60.10
2022-09-20T16:24:34.703Z,59.80
2022-09-20T16:27:04.647Z,59.90
2022-09-20T16:29:32.154Z,60.10
2022-09-20T16:32:00.594Z,59.90
2022-09-20T16:34:35.450Z,59.80
2022-09-20T16:37:16.883Z,60.00
2022-09-20T16:39:44.468Z,60.00
2022-09-20T16:42:13.430Z,60.50
2022-09-20T16:44:43.145Z,60.80
2022-09-20T16:47:16.527Z,60.40
2022-09-20T16:49:44.242Z,61.00
2022-09-20T16:52:11.625Z,61.20
2022-09-20T16:54:39.151Z,61.20
2022-09-20T16:57:06.745Z,61.20
2022-09-20T16:59:33.974Z,61.80
2022-09-20T17:02:01.159Z,62.00
2022-09-20T17:04:28.471Z,61.90
2022-09-20T17:06:55.736Z,62.50
2022-09-20T17:09:23.086Z,62.70
2022-09-20T17:11:51.456Z,62.90
2022-09-20T17:14:20.612Z,63.10
2022-09-20T17:16:49.340Z,63.10
2022-09-20T17:19:21.972Z,63.40
2022-09-20T17:21:51.277Z,63.70
2022-09-20T17:24:20.609Z,63.90
2022-09-20T17:26:48.790Z,63.40
2022-09-20T17:29:17.680Z,63.70
2022-09-20T17:31:53.899Z,63.50
2022-09-20T17:34:22.977Z,63.50
2022-09-20T17:36:50.922Z,63.30
2022-09-20T17:39:18.818Z,63.60
2022-09-20T17:41:48.122Z,63.60
2022-09-20T17:44:16.322Z,64.00
2022-09-20T17:46:49.546Z,63.60
2022-09-20T17:49:22.283Z,63.60
2022-09-20T17:51:54.565Z,63.70
2022-09-20T17:54:23.521Z,63.00
2022-09-20T17:56:52.215Z,62.90
2022-09-20T17:59:20.577Z,63.20
2022-09-20T18:01:50.118Z,63.60
2022-09-20T18:04:18.383Z,63.50
2022-09-20T18:06:47.685Z,63.40
2022-09-20T18:09:17.617Z,63.20
2022-09-20T18:11:49.153Z,63.70
2022-09-20T18:14:21.638Z,63.30
2022-09-20T18:16:55.545Z,63.40
2022-09-20T18:19:22.970Z,63.70
2022-09-20T18:21:50.767Z,63.50
2022-09-20T18:24:18.131Z,63.60
2022-09-20T18:26:45.400Z,63.90
2022-09-20T18:29:16.762Z,63.80
2022-09-20T18:31:48.761Z,63.40
2022-09-20T18:34:19.224Z,63.10
2022-09-20T18:36:55.195Z,63.00
2022-09-20T18:39:28.128Z,62.70
2022-09-20T18:41:58.215Z,62.50
2022-09-20T18:44:26.500Z,62.40
2022-09-20T18:46:55.249Z,62.40
2022-09-20T18:49:23.197Z,62.30
2022-09-20T18:51:50.698Z,61.90
2022-09-20T18:54:19.147Z,62.00
2022-09-20T18:56:48.320Z,62.00
2022-09-20T18:59:19.182Z,62.30
2022-09-20T19:01:56.452Z,62.50
2022-09-20T19:04:52.097Z,62.90
2022-09-20T19:07:28.616Z,62.80
2022-09-20T19:10:16.741Z,63.10
2022-09-20T19:13:06.578Z,63.00
2022-09-20T19:16:00.768Z,63.10
2022-09-20T19:18:49.592Z,63.10
2022-09-20T19:21:25.800Z,63.00
2022-09-20T19:24:07.050Z,63.20
2022-09-20T19:26:38.848Z,63.40
2022-09-20T19:29:20.143Z,63.40
2022-09-20T19:31:53.895Z,63.40
2022-09-20T19:34:27.045Z,63.10
2022-09-20T19:37:08.682Z,63.20
2022-09-20T19:40:00.642Z,62.90
2022-09-20T19:42:28.811Z,63.20
2022-09-20T19:45:19.449Z,63.20
2022-09-20T19:47:58.972Z,63.40
2022-09-20T19:50:48.844Z,63.30
2022-09-20T19:53:18.115Z,63.30
2022-09-20T19:55:52.319Z,63.40
2022-09-20T19:58:23.664Z,63.60
2022-09-20T20:00:52.706Z,63.50
2022-09-20T20:03:20.326Z,63.80
2022-09-20T20:05:58.849Z,63.80
2022-09-20T20:08:58.938Z,63.80
2022-09-20T20:12:01.361Z,64.00
2022-09-20T20:14:44.129Z,63.90
2022-09-20T20:17:33.170Z,63.30
2022-09-20T20:20:38.502Z,63.00
2022-09-20T20:23:29.168Z,63.30
2022-09-20T20:26:13.770Z,63.40
2022-09-20T20:28:41.148Z,63.50
2022-09-20T20:31:12.436Z,63.70
2022-09-20T20:33:40.344Z,63.80
2022-09-20T20:36:10.110Z,64.00
2022-09-20T20:38:38.422Z,64.00
2022-09-20T20:41:11.686Z,64.00
2022-09-20T20:43:43.522Z,64.00
2022-09-20T20:46:14.387Z,63.90
2022-09-20T20:48:42.486Z,64.00
2022-09-20T20:51:27.366Z,64.20
2022-09-20T20:53:55.413Z,64.30
2022-09-20T20:56:26.434Z,64.30
2022-09-20T20:58:53.931Z,64.40
2022-09-20T21:01:32.151Z,64.30
2022-09-20T21:04:01.241Z,64.00
2022-09-20T21:06:30.734Z,64.00
2022-09-20T21:08:58.792Z,64.10
2022-09-20T21:11:29.664Z,64.10
2022-09-20T21:13:59.333Z,64.00
2022-09-20T21:16:35.761Z,64.00
2022-09-20T21:19:05.024Z,64.20
2022-09-20T21:21:35.413Z,64.40
2022-09-20T21:24:05.726Z,64.60
2022-09-20T21:26:34.648Z,64.80
2022-09-20T21:29:21.490Z,65.00
2022-09-20T21:31:48.739Z,65.20
2022-09-20T21:34:16.815Z,65.30
2022-09-20T21:36:44.965Z,65.40
2022-09-20T21:39:12.611Z,65.50
2022-09-20T21:41:40.655Z,65.60
2022-09-20T21:44:12.354Z,65.60
2022-09-20T21:46:41.411Z,65.90
2022-09-20T21:49:11.255Z,66.00
2022-09-20T21:51:41.542Z,66.10
2022-09-20T21:54:09.278Z,66.20
2022-09-20T21:56:38.327Z,66.40
2022-09-20T21:59:07.738Z,66.50
2022-09-20T22:01:37.776Z,66.40
2022-09-20T22:04:07.328Z,66.60
2022-09-20T22:06:38.078Z,66.70
2022-09-20T22:09:13.736Z,66.50
2022-09-20T22:11:46.321Z,66.60
2022-09-20T22:14:15.827Z,66.70
2022-09-20T22:16:44.846Z,66.90
2022-09-20T22:19:15.139Z,67.00
2022-09-20T22:21:51.543Z,67.00
2022-09-20T22:24:18.818Z,67.20
2022-09-20T22:26:54.680Z,67.20
2022-09-20T22:29:22.286Z,67.10
2022-09-20T22:31:50.272Z,67.00
2022-09-20T22:34:21.861Z,67.00
2022-09-20T22:36:49.346Z,67.20
2022-09-20T22:39:17.171Z,67.30
2022-09-20T22:41:45.017Z,67.30
2022-09-20T22:44:12.304Z,67.20
2022-09-20T22:46:40.220Z,67.30
2022-09-20T22:49:08.658Z,67.30
2022-09-20T22:51:36.513Z,67.20
2022-09-20T22:54:09.391Z,67.30
2022-09-20T22:56:37.571Z,67.40
2022-09-20T22:59:07.692Z,67.60
2022-09-20T23:01:43.572Z,67.70
2022-09-20T23:04:13.492Z,67.80
2022-09-20T23:06:55.243Z,67.80
2022-09-20T23:09:26.487Z,67.70
2022-09-20T23:11:53.651Z,67.60
2022-09-20T23:14:22.963Z,67.60
2022-09-20T23:16:50.414Z,67.70
2022-09-20T23:19:18.121Z,67.60
2022-09-20T23:21:45.486Z,67.30
2022-09-20T23:24:14.275Z,67.10
2022-09-20T23:26:42.161Z,67.00
2022-09-20T23:29:15.130Z,66.90
2022-09-20T23:31:46.201Z,66.90
2022-09-20T23:34:14.648Z,66.90
2022-09-20T23:36:42.730Z,66.80
2022-09-20T23:39:11.891Z,66.80
2022-09-20T23:41:40.472Z,66.70
2022-09-20T23:44:10.046Z,66.80
2022-09-20T23:46:38.455Z,66.90
2022-09-20T23:49:06.859Z,67.10
2022-09-20T23:51:35.691Z,67.00
2022-09-20T23:54:08.817Z,67.20
2022-09-20T23:56:37.642Z,67.50
2022-09-20T23:59:07.739Z,67.50
